Airfield :
LOGIN :

Register | Disclaimer

   EN    FR    IT 

 










Legend :    VFR   Marginal VFR   IFR   Intensive IFR   Very Intensive IFR
Visi :
Ceiling :
>= 8 km
>= 3000ft
5 to 8 km
1000 to 3000 ft
1500m to 5 km
500 to 1000 ft
800 to 1500m
200 to 500 ft
< 800m
< 200 ft
Symbols :   Thunderstorms  Fog  Heavy snow  Heavy precipitations  Wind > 20 kt
SIGMETs :     Misc.  Thunderstorms  Icing  Turbulence  Mountain Waves  Volcanic Ashes







- Airport Elevation : 158 ft
- IATA code : QAR


EHDL - Deelen Airbase

CURRENT METAR :
  • 252225Z AUTO 33008KT 310V010 9999 OVC019 06/02 Q1030 WHT

EXPIRED METARs :
  • 252155Z AUTO 34007KT 300V010 9999 OVC020 06/02 Q1030 WHT
  • 252125Z AUTO 34006KT 9999 BKN018 OVC022 06/02 Q1029 WHT
  • 252055Z AUTO 35013KT 330V030 9999 BKN021 06/02 Q1029 WHT
  • 252025Z AUTO 34008KT 320V020 9999 SCT019 BKN022 06/02 Q1028 WHT
  • 251955Z AUTO 34009KT 310V010 9999 FEW016 BKN021 05/02 Q1028 WHT

Expired Forecast.
No reported NOTAMs for that airfield.



MET'MAP, your aeronautical weather chart ! - Copyright ORBIFLY December 2007 - Disclaimer

ORBIFLY MET'MAP TEAM :

Programming & Development : Alexandra Zaïnal
Concept & Development : Baudouin d'Aumeries
Co-Development & Prog : Marc-Olivier Méhu
Technical & hardware support : Manuel Goepfert

Contact : metmap@orbifly.com




SOURCES & CREDITS :

   NOAA